createdAt,value
2019-03-05T00:01:04.404Z,97021.86
2019-03-05T00:03:33.919Z,97031.88
2019-03-05T00:12:59.604Z,97024.50
2019-03-05T00:15:28.879Z,97030.47
2019-03-05T00:17:58.189Z,97034.84
2019-03-05T00:20:27.318Z,97042.91
2019-03-05T00:22:56.638Z,97051.16
2019-03-05T00:25:25.891Z,97051.97
2019-03-05T00:28:11.264Z,97059.16
2019-03-05T00:31:01.567Z,97083.48
2019-03-05T00:34:15.132Z,97066.89
2019-03-05T00:37:07.128Z,97070.48
2019-03-05T00:40:02.250Z,97077.66
2019-03-05T00:43:10.096Z,97065.20
2019-03-05T00:46:04.250Z,97077.59
2019-03-05T00:49:10.247Z,97074.83
2019-03-05T00:52:03.322Z,97083.23
2019-03-05T00:55:14.543Z,97071.13
2019-03-05T00:58:29.148Z,97074.89
2019-03-05T01:01:56.068Z,97074.22
2019-03-05T01:04:44.445Z,97076.86
2019-03-05T01:07:14.367Z,97074.55
2019-03-05T01:09:43.551Z,97071.50
2019-03-05T01:12:14.411Z,97076.62
2019-03-05T01:14:44.049Z,97076.25
2019-03-05T01:17:13.332Z,97088.16
2019-03-05T01:19:42.577Z,97092.38
2019-03-05T01:22:12.080Z,97082.87
2019-03-05T01:24:41.336Z,97090.01
2019-03-05T01:27:10.722Z,97091.83
2019-03-05T01:29:39.965Z,97102.99
2019-03-05T01:32:19.341Z,97105.70
2019-03-05T01:35:03.721Z,97103.06
2019-03-05T01:37:33.039Z,97106.05
2019-03-05T01:40:07.920Z,97100.41
2019-03-05T01:42:37.010Z,97103.55
2019-03-05T01:45:08.049Z,97103.55
2019-03-05T01:47:37.289Z,97100.41
2019-03-05T01:50:07.519Z,97107.27
2019-03-05T01:52:36.737Z,97107.64
2019-03-05T01:55:06.082Z,97092.56
2019-03-05T01:57:35.251Z,97093.66
2019-03-05T02:00:05.775Z,97092.56
2019-03-05T02:02:35.046Z,97103.64
2019-03-05T02:05:04.667Z,97099.63
2019-03-05T02:07:33.876Z,97096.47
2019-03-05T02:10:03.712Z,97095.73
2019-03-05T02:12:32.858Z,97103.73
2019-03-05T02:15:01.972Z,97091.30
2019-03-05T02:17:31.209Z,97093.52
2019-03-05T02:20:00.407Z,97096.72
2019-03-05T02:22:38.329Z,97094.78
2019-03-05T02:25:37.707Z,97103.73
2019-03-05T02:28:53.408Z,97111.92
2019-03-05T02:32:01.806Z,97107.37
2019-03-05T02:34:56.407Z,97105.70
2019-03-05T02:38:01.133Z,97121.64
2019-03-05T02:40:43.030Z,97107.73
2019-03-05T02:43:56.879Z,97104.13
2019-03-05T02:46:54.947Z,97102.59
2019-03-05T02:49:58.232Z,97110.16
2019-03-05T02:53:05.661Z,97112.23
2019-03-05T02:56:12.563Z,97117.30
2019-03-05T02:58:40.058Z,97128.61
2019-03-05T03:01:21.680Z,97122.56
2019-03-05T03:03:54.385Z,97123.38
2019-03-05T03:06:26.640Z,97126.23
2019-03-05T03:09:43.205Z,97134.80
2019-03-05T03:12:12.419Z,97137.30
2019-03-05T03:14:41.749Z,97127.02
2019-03-05T03:17:11.002Z,97133.29
2019-03-05T03:19:40.311Z,97131.82
2019-03-05T03:22:09.452Z,97135.83
2019-03-05T03:24:38.602Z,97128.91
2019-03-05T03:27:07.814Z,97136.63
2019-03-05T03:29:37.058Z,97141.84
2019-03-05T03:32:06.168Z,97149.84
2019-03-05T03:34:35.618Z,97135.34
2019-03-05T03:37:05.140Z,97140.92
2019-03-05T03:39:34.601Z,97141.42
2019-03-05T03:42:03.757Z,97138.89
2019-03-05T03:44:33.246Z,97145.16
2019-03-05T03:47:02.458Z,97143.84
2019-03-05T03:49:31.723Z,97146.64
2019-03-05T03:52:00.971Z,97150.23
2019-03-05T03:54:30.086Z,97158.20
2019-03-05T03:57:00.505Z,97158.20
2019-03-05T03:59:29.766Z,97154.50
2019-03-05T04:01:59.283Z,97150.37
2019-03-05T04:04:28.721Z,97156.73
2019-03-05T04:06:58.294Z,97158.16
2019-03-05T04:09:27.419Z,97161.72
2019-03-05T04:11:57.074Z,97155.14
2019-03-05T04:14:26.276Z,97149.73
2019-03-05T04:16:55.840Z,97153.41
2019-03-05T04:19:28.594Z,97162.66
2019-03-05T04:21:57.792Z,97149.14
2019-03-05T04:24:27.076Z,97147.39
2019-03-05T04:26:56.738Z,97165.02
2019-03-05T04:29:25.904Z,97162.22
2019-03-05T04:31:55.093Z,97166.64
2019-03-05T04:34:48.157Z,97163.08
2019-03-05T04:37:17.513Z,97170.76
2019-03-05T04:39:46.698Z,97171.59
2019-03-05T04:42:22.445Z,97182.13
2019-03-05T04:44:57.073Z,97169.39
2019-03-05T04:47:26.260Z,97166.59
2019-03-05T04:50:07.742Z,97171.20
2019-03-05T04:52:38.077Z,97180.98
2019-03-05T04:55:26.357Z,97170.70
2019-03-05T04:57:55.581Z,97174.03
2019-03-05T05:00:25.733Z,97178.55
2019-03-05T05:02:54.960Z,97189.05
2019-03-05T05:05:24.333Z,97190.65
2019-03-05T05:07:53.530Z,97180.41
2019-03-05T05:10:22.645Z,97180.56
2019-03-05T05:12:53.069Z,97167.03
2019-03-05T05:15:28.019Z,97175.48
2019-03-05T05:17:57.303Z,97170.54
2019-03-05T05:20:26.519Z,97181.20
2019-03-05T05:22:56.111Z,97182.69
2019-03-05T05:25:28.318Z,97193.12
2019-03-05T05:27:59.398Z,97187.58
2019-03-05T05:30:37.343Z,97185.50
2019-03-05T05:33:07.139Z,97194.64
2019-03-05T05:35:37.066Z,97202.28
2019-03-05T05:38:07.411Z,97200.05
2019-03-05T05:40:38.378Z,97210.29
2019-03-05T05:43:13.892Z,97220.04
2019-03-05T05:45:48.457Z,97215.84
2019-03-05T05:48:21.938Z,97222.63
2019-03-05T05:50:53.754Z,97229.54
2019-03-05T05:53:27.293Z,97224.40
2019-03-05T05:55:59.313Z,97226.20
2019-03-05T05:58:31.572Z,97236.84
2019-03-05T06:01:03.153Z,97230.81
2019-03-05T06:03:37.807Z,97236.97
2019-03-05T06:06:10.028Z,97238.16
2019-03-05T06:08:40.079Z,97238.41
2019-03-05T06:11:17.418Z,97240.36
2019-03-05T06:13:47.428Z,97246.34
2019-03-05T06:16:21.844Z,97250.31
2019-03-05T06:25:20.991Z,97255.48
2019-03-05T06:27:53.334Z,97266.28
2019-03-05T06:30:22.619Z,97266.48
2019-03-05T06:32:51.802Z,97264.94
2019-03-05T06:35:25.303Z,97262.00
2019-03-05T06:37:54.475Z,97263.05
2019-03-05T06:40:23.835Z,97272.30
2019-03-05T06:42:53.098Z,97270.64
2019-03-05T06:45:22.411Z,97269.61
2019-03-05T06:47:51.631Z,97282.63
2019-03-05T06:50:20.915Z,97276.42
2019-03-05T06:52:50.247Z,97284.44
2019-03-05T06:55:19.595Z,97291.12
2019-03-05T06:57:48.693Z,97286.45
2019-03-05T07:00:25.200Z,97285.72
2019-03-05T07:02:54.407Z,97279.54
2019-03-05T07:05:59.493Z,97288.41
2019-03-05T07:08:28.661Z,97291.42
2019-03-05T07:11:33.763Z,97294.17
2019-03-05T07:14:04.289Z,97298.53
2019-03-05T07:16:49.102Z,97295.84
2019-03-05T07:19:44.692Z,97305.00
2019-03-05T07:23:00.283Z,97299.78
2019-03-05T07:25:29.563Z,97302.26
2019-03-05T07:27:59.461Z,97306.62
2019-03-05T07:30:29.034Z,97302.45
2019-03-05T07:32:59.622Z,97307.06
2019-03-05T07:35:30.722Z,97306.91
2019-03-05T07:38:02.162Z,97304.02
2019-03-05T07:40:31.357Z,97296.52
2019-03-05T07:43:00.487Z,97305.95
2019-03-05T07:45:29.624Z,97299.27
2019-03-05T07:47:58.648Z,97299.48
2019-03-05T07:50:27.764Z,97311.56
2019-03-05T07:52:56.866Z,97310.12
2019-03-05T07:55:26.294Z,97324.80
2019-03-05T07:57:55.659Z,97319.55
2019-03-05T08:00:24.749Z,97326.88
2019-03-05T08:02:53.959Z,97329.04
2019-03-05T08:05:23.128Z,97332.30
2019-03-05T08:07:52.479Z,97319.23
2019-03-05T08:10:30.252Z,97325.00
2019-03-05T08:13:25.846Z,97336.85
2019-03-05T08:16:32.403Z,97327.58
2019-03-05T08:19:01.507Z,97350.34
2019-03-05T08:21:30.604Z,97350.70
2019-03-05T08:23:59.696Z,97358.95
2019-03-05T08:26:29.158Z,97365.38
2019-03-05T08:28:58.259Z,97367.00
2019-03-05T08:31:27.313Z,97365.88
2019-03-05T08:33:56.452Z,97364.41
2019-03-05T08:36:25.528Z,97371.03
2019-03-05T08:38:54.783Z,97369.80
2019-03-05T08:41:23.821Z,97374.02
2019-03-05T08:43:54.277Z,97368.23
2019-03-05T08:46:23.578Z,97373.09
2019-03-05T08:48:52.730Z,97374.10
2019-03-05T08:51:22.863Z,97374.95
2019-03-05T08:53:51.970Z,97371.98
2019-03-05T08:56:21.042Z,97370.27
2019-03-05T08:58:50.161Z,97374.97
2019-03-05T09:01:19.302Z,97384.50
2019-03-05T09:03:48.414Z,97383.01
2019-03-05T09:06:17.491Z,97402.42
2019-03-05T09:08:46.550Z,97387.93
2019-03-05T09:11:15.662Z,97396.61
2019-03-05T09:13:44.830Z,97406.89
2019-03-05T09:16:14.062Z,97402.94
2019-03-05T09:18:43.196Z,97405.42
2019-03-05T09:21:12.365Z,97416.33
2019-03-05T09:23:41.577Z,97413.31
2019-03-05T09:26:10.806Z,97432.30
2019-03-05T09:28:39.872Z,97421.22
2019-03-05T09:31:08.956Z,97423.66
2019-03-05T09:33:38.184Z,97429.47
2019-03-05T09:36:08.456Z,97436.83
2019-03-05T09:38:37.484Z,97446.52
2019-03-05T09:41:06.589Z,97435.09
2019-03-05T09:43:35.787Z,97436.23
2019-03-05T09:46:04.903Z,97448.84
2019-03-05T09:48:34.021Z,97443.95
2019-03-05T09:51:03.125Z,97439.15
2019-03-05T09:53:32.212Z,97447.91
2019-03-05T09:56:01.693Z,97439.91
2019-03-05T09:58:30.867Z,97440.53
2019-03-05T10:00:59.931Z,97443.17
2019-03-05T10:03:29.011Z,97439.62
2019-03-05T10:05:58.084Z,97444.27
2019-03-05T10:08:32.352Z,97446.81
2019-03-05T10:10:58.372Z,97443.53
2019-03-05T10:13:27.451Z,97438.52
2019-03-05T10:15:56.535Z,97431.55
2019-03-05T10:18:25.695Z,97432.00
2019-03-05T10:20:54.872Z,97437.16
2019-03-05T10:23:24.006Z,97438.05
2019-03-05T10:25:53.204Z,97440.98
2019-03-05T10:28:22.356Z,97444.43
2019-03-05T10:30:51.581Z,97442.12
2019-03-05T10:33:20.791Z,97455.36
2019-03-05T10:35:49.982Z,97447.66
2019-03-05T10:38:19.145Z,97456.54
2019-03-05T10:40:48.684Z,97450.55
2019-03-05T10:43:17.762Z,97454.19
2019-03-05T10:45:47.079Z,97463.28
2019-03-05T10:48:17.233Z,97463.87
2019-03-05T10:50:47.230Z,97467.66
2019-03-05T10:53:16.548Z,97476.83
2019-03-05T10:55:45.636Z,97475.16
2019-03-05T10:58:16.054Z,97477.64
2019-03-05T11:00:45.926Z,97483.08
2019-03-05T11:03:15.331Z,97482.86
2019-03-05T11:05:44.473Z,97486.05
2019-03-05T11:08:18.583Z,97484.86
2019-03-05T11:10:48.000Z,97489.72
2019-03-05T11:13:17.081Z,97481.73
2019-03-05T11:15:51.851Z,97482.38
2019-03-05T11:18:29.022Z,97475.30
2019-03-05T11:20:51.926Z,97486.73
2019-03-05T11:23:21.014Z,97490.98
2019-03-05T11:25:50.321Z,97498.59
2019-03-05T11:28:19.428Z,97495.45
2019-03-05T11:30:48.551Z,97497.06
2019-03-05T11:33:17.715Z,97493.66
2019-03-05T11:35:46.814Z,97504.67
2019-03-05T11:38:15.880Z,97495.88
2019-03-05T11:40:44.970Z,97496.92
2019-03-05T11:43:16.707Z,97500.11
2019-03-05T11:45:45.930Z,97490.99
2019-03-05T11:48:16.066Z,97493.18
2019-03-05T11:50:47.006Z,97506.19
2019-03-05T11:53:16.097Z,97503.54
2019-03-05T11:55:45.384Z,97501.81
2019-03-05T11:58:14.429Z,97511.48
2019-03-05T12:01:21.099Z,97517.49
2019-03-05T12:03:50.123Z,97518.59
2019-03-05T12:06:19.222Z,97539.34
2019-03-05T12:08:48.356Z,97540.66
2019-03-05T12:11:17.466Z,97538.16
2019-03-05T12:13:46.537Z,97569.59
2019-03-05T12:16:16.109Z,97547.86
2019-03-05T12:18:45.304Z,97542.22
2019-03-05T12:21:14.342Z,97544.30
2019-03-05T12:23:47.034Z,97536.21
2019-03-05T12:26:14.395Z,97540.64
2019-03-05T12:28:44.135Z,97540.44
2019-03-05T12:31:13.322Z,97544.79
2019-03-05T12:33:42.422Z,97547.06
2019-03-05T12:36:11.646Z,97543.86
2019-03-05T12:38:41.418Z,97544.84
2019-03-05T12:41:10.594Z,97560.55
2019-03-05T12:43:39.755Z,97548.05
2019-03-05T12:46:09.033Z,97561.84
2019-03-05T12:48:40.202Z,97556.08
2019-03-05T12:51:10.079Z,97557.41
2019-03-05T12:53:39.197Z,97559.48
2019-03-05T12:56:08.526Z,97555.37
2019-03-05T12:58:37.643Z,97562.89
2019-03-05T13:01:08.882Z,97554.88
2019-03-05T13:03:38.320Z,97559.41
2019-03-05T13:06:07.658Z,97559.27
2019-03-05T13:08:36.811Z,97557.88
2019-03-05T13:11:09.505Z,97558.78
2019-03-05T13:13:37.481Z,97568.59
2019-03-05T13:16:07.045Z,97557.95
2019-03-05T13:18:36.137Z,97564.28
2019-03-05T13:21:07.787Z,97559.63
2019-03-05T13:23:36.252Z,97573.61
2019-03-05T13:26:07.544Z,97571.20
2019-03-05T13:28:36.769Z,97577.24
2019-03-05T13:31:07.179Z,97580.58
2019-03-05T13:33:37.987Z,97587.29
2019-03-05T13:36:12.004Z,97593.42
2019-03-05T13:38:41.707Z,97601.31
2019-03-05T13:41:12.131Z,97616.84
2019-03-05T13:43:41.235Z,97617.72
2019-03-05T13:46:10.346Z,97636.16
2019-03-05T13:49:05.941Z,97650.01
2019-03-05T13:52:37.240Z,97637.56
2019-03-05T13:55:26.871Z,97653.16
2019-03-05T13:58:32.846Z,97621.91
2019-03-05T14:01:02.285Z,97620.09
2019-03-05T14:03:45.518Z,97627.95
2019-03-05T14:06:59.663Z,97630.73
2019-03-05T14:09:27.574Z,97627.99
2019-03-05T14:11:56.742Z,97627.64
2019-03-05T14:14:28.866Z,97626.48
2019-03-05T14:17:15.395Z,97629.59
2019-03-05T14:19:44.619Z,97629.19
2019-03-05T14:22:13.777Z,97632.39
2019-03-05T14:24:42.915Z,97628.20
2019-03-05T14:27:12.191Z,97631.61
2019-03-05T14:29:41.363Z,97645.02
2019-03-05T14:32:11.030Z,97632.72
2019-03-05T14:34:40.302Z,97634.61
2019-03-05T14:37:09.403Z,97644.58
2019-03-05T14:39:38.819Z,97636.14
2019-03-05T14:42:10.062Z,97646.53
2019-03-05T14:44:40.706Z,97651.48
2019-03-05T14:47:09.882Z,97645.69
2019-03-05T14:49:38.976Z,97647.48
2019-03-05T14:52:08.151Z,97653.42
2019-03-05T14:54:37.276Z,97646.75
2019-03-05T14:57:06.466Z,97647.92
2019-03-05T14:59:35.598Z,97646.56
2019-03-05T15:02:04.803Z,97644.72
2019-03-05T15:04:34.062Z,97645.33
2019-03-05T15:07:04.785Z,97652.58
2019-03-05T15:09:34.282Z,97651.02
2019-03-05T15:12:03.680Z,97649.80
2019-03-05T15:14:33.102Z,97655.78
2019-03-05T15:17:02.343Z,97654.95
2019-03-05T15:19:34.488Z,97660.80
2019-03-05T15:22:02.571Z,97661.67
2019-03-05T15:24:31.733Z,97670.47
2019-03-05T15:27:00.863Z,97668.84
2019-03-05T15:29:29.961Z,97679.60
2019-03-05T15:31:59.040Z,97681.80
2019-03-05T15:34:28.251Z,97685.01
2019-03-05T15:36:57.401Z,97688.36
2019-03-05T15:39:26.555Z,97679.56
2019-03-05T15:41:55.685Z,97679.55
2019-03-05T15:44:24.966Z,97680.52
2019-03-05T15:46:54.181Z,97676.22
2019-03-05T15:49:23.291Z,97681.81
2019-03-05T15:51:52.559Z,97683.34
2019-03-05T15:54:21.645Z,97692.58
2019-03-05T15:56:51.023Z,97686.33
2019-03-05T15:59:20.121Z,97691.48
2019-03-05T16:01:49.198Z,97693.39
2019-03-05T16:04:18.347Z,97703.32
2019-03-05T16:06:49.646Z,97700.78
2019-03-05T16:09:18.893Z,97699.84
2019-03-05T16:11:48.075Z,97704.98
2019-03-05T16:14:17.253Z,97700.03
2019-03-05T16:16:46.437Z,97708.92
2019-03-05T16:19:16.549Z,97713.64
2019-03-05T16:21:48.492Z,97719.64
2019-03-05T16:24:17.973Z,97716.05
2019-03-05T16:26:47.118Z,97717.52
2019-03-05T16:29:19.965Z,97728.43
2019-03-05T16:32:09.116Z,97724.66
2019-03-05T16:35:02.962Z,97734.27
2019-03-05T16:37:50.694Z,97743.87
2019-03-05T16:40:57.278Z,97743.41
2019-03-05T16:43:35.944Z,97745.08
2019-03-05T16:46:22.384Z,97752.37
2019-03-05T16:49:16.628Z,97748.39
2019-03-05T16:52:11.212Z,97756.89
2019-03-05T16:54:51.923Z,97764.62
2019-03-05T16:57:43.431Z,97766.88
2019-03-05T17:00:48.726Z,97762.40
2019-03-05T17:03:31.412Z,97762.83
2019-03-05T17:06:13.575Z,97772.86
2019-03-05T17:09:02.928Z,97784.52
2019-03-05T17:11:52.772Z,97786.13
2019-03-05T17:14:21.975Z,97797.08
2019-03-05T17:16:51.617Z,97796.88
2019-03-05T17:19:20.792Z,97806.66
2019-03-05T17:21:49.925Z,97809.09
2019-03-05T17:24:19.213Z,97811.86
2019-03-05T17:26:48.332Z,97828.05
2019-03-05T17:29:17.499Z,97823.19
2019-03-05T17:31:46.575Z,97818.63
2019-03-05T17:34:15.783Z,97829.73
2019-03-05T17:36:44.906Z,97830.21
2019-03-05T17:39:18.833Z,97834.88
2019-03-05T17:41:47.935Z,97844.30
2019-03-05T17:44:17.083Z,97841.16
2019-03-05T17:46:46.520Z,97841.46
2019-03-05T17:49:15.689Z,97846.18
2019-03-05T17:51:44.843Z,97851.25
2019-03-05T17:54:14.145Z,97853.74
2019-03-05T17:56:43.495Z,97855.12
2019-03-05T17:59:12.776Z,97869.09
2019-03-05T18:01:41.929Z,97874.23
2019-03-05T18:04:11.083Z,97874.94
2019-03-05T18:06:40.286Z,97888.30
2019-03-05T18:09:09.739Z,97892.02
2019-03-05T18:11:38.924Z,97888.70
2019-03-05T18:14:08.218Z,97898.18
2019-03-05T18:16:39.163Z,97905.36
2019-03-05T18:19:08.322Z,97911.88
2019-03-05T18:21:37.867Z,97913.25
2019-03-05T18:24:07.020Z,97914.70
2019-03-05T18:26:36.351Z,97920.39
2019-03-05T18:29:05.545Z,97928.67
2019-03-05T18:31:34.709Z,97927.59
2019-03-05T18:34:04.146Z,97938.52
2019-03-05T18:36:33.579Z,97941.99
2019-03-05T18:39:02.712Z,97940.91
2019-03-05T18:41:31.837Z,97939.35
2019-03-05T18:44:01.009Z,97941.28
2019-03-05T18:46:30.659Z,97945.70
2019-03-05T18:48:59.849Z,97950.50
2019-03-05T18:51:29.021Z,97952.02
2019-03-05T18:53:59.374Z,97966.41
2019-03-05T18:56:28.787Z,97968.77
2019-03-05T18:58:57.921Z,97971.88
2019-03-05T19:01:27.244Z,97970.80
2019-03-05T19:03:56.404Z,97968.23
2019-03-05T19:06:25.930Z,97972.59
2019-03-05T19:08:55.189Z,97977.68
2019-03-05T19:11:24.473Z,97976.00
2019-03-05T19:13:53.703Z,97978.10
2019-03-05T19:16:22.982Z,97974.65
2019-03-05T19:18:52.144Z,97980.42
2019-03-05T19:21:21.309Z,97983.37
2019-03-05T19:23:50.417Z,97982.59
2019-03-05T19:26:19.585Z,97983.28
2019-03-05T19:28:50.526Z,97985.89
2019-03-05T19:31:19.708Z,97982.25
2019-03-05T19:33:49.659Z,97984.04
2019-03-05T19:36:18.747Z,97991.25
2019-03-05T19:38:50.348Z,97994.00
2019-03-05T19:41:19.110Z,97998.27
2019-03-05T19:43:48.576Z,98005.92
2019-03-05T19:46:18.130Z,98005.89
2019-03-05T19:48:47.312Z,97993.77
2019-03-05T19:51:16.920Z,97998.33
2019-03-05T19:53:46.908Z,98006.71
2019-03-05T19:56:16.387Z,98011.02
2019-03-05T19:58:46.052Z,98016.94
2019-03-05T20:01:18.553Z,98020.30
2019-03-05T20:03:51.940Z,98027.75
2019-03-05T20:06:22.801Z,98023.80
2019-03-05T20:08:52.044Z,98026.52
2019-03-05T20:11:21.313Z,98040.08
2019-03-05T20:13:50.972Z,98041.64
2019-03-05T20:16:21.195Z,98039.69
2019-03-05T20:18:50.403Z,98046.00
2019-03-05T20:21:20.519Z,98033.08
2019-03-05T20:23:52.386Z,98038.24
2019-03-05T20:26:22.652Z,98055.34
2019-03-05T20:28:52.074Z,98057.06
2019-03-05T20:31:21.222Z,98056.69
2019-03-05T20:33:50.410Z,98072.63
2019-03-05T20:36:19.675Z,98065.25
2019-03-05T20:38:49.248Z,98073.06
2019-03-05T20:41:18.384Z,98078.22
2019-03-05T20:43:48.120Z,98079.22
2019-03-05T20:46:20.461Z,98077.38
2019-03-05T20:48:49.561Z,98082.97
2019-03-05T20:51:18.764Z,98082.25
2019-03-05T20:53:48.121Z,98085.80
2019-03-05T20:56:17.270Z,98087.13
2019-03-05T20:58:46.429Z,98091.98
2019-03-05T21:01:15.776Z,98096.95
2019-03-05T21:03:44.958Z,98094.11
2019-03-05T21:06:14.259Z,98094.47
2019-03-05T21:08:43.461Z,98098.90
2019-03-05T21:11:12.688Z,98104.86
2019-03-05T21:13:41.877Z,98095.52
2019-03-05T21:16:11.025Z,98093.98
2019-03-05T21:18:40.282Z,98096.64
2019-03-05T21:21:09.485Z,98097.42
2019-03-05T21:23:38.612Z,98098.52
2019-03-05T21:26:07.989Z,98102.48
2019-03-05T21:28:37.104Z,98104.28
2019-03-05T21:31:06.375Z,98108.34
2019-03-05T21:33:35.483Z,98103.15
2019-03-05T21:36:04.658Z,98106.33
2019-03-05T21:38:33.963Z,98107.17
2019-03-05T21:41:03.121Z,98115.15
2019-03-05T21:43:32.612Z,98122.68
2019-03-05T21:46:04.955Z,98116.05
2019-03-05T21:48:34.071Z,98116.58
2019-03-05T21:51:03.405Z,98119.55
2019-03-05T21:53:32.537Z,98126.35
2019-03-05T21:56:01.702Z,98131.58
2019-03-05T21:58:30.890Z,98128.73
2019-03-05T22:01:01.023Z,98135.47
2019-03-05T22:03:30.094Z,98136.20
2019-03-05T22:06:00.091Z,98138.91
2019-03-05T22:08:29.401Z,98140.42
2019-03-05T22:10:59.074Z,98144.61
2019-03-05T22:13:28.402Z,98136.81
2019-03-05T22:15:57.755Z,98138.97
2019-03-05T22:18:27.205Z,98137.23
2019-03-05T22:20:56.337Z,98132.73
2019-03-05T22:23:25.434Z,98140.06
2019-03-05T22:25:54.729Z,98135.48
2019-03-05T22:28:23.899Z,98129.80
2019-03-05T22:30:53.317Z,98133.56
2019-03-05T22:33:22.599Z,98132.38
2019-03-05T22:35:51.753Z,98135.63
2019-03-05T22:38:21.034Z,98139.06
2019-03-05T22:40:50.093Z,98142.77
2019-03-05T22:43:19.546Z,98139.48
2019-03-05T22:45:48.986Z,98133.48
2019-03-05T22:48:18.155Z,98140.22
2019-03-05T22:50:47.293Z,98143.59
2019-03-05T22:53:16.503Z,98143.22
2019-03-05T22:55:45.806Z,98144.17
2019-03-05T22:58:14.880Z,98148.23
2019-03-05T23:01:16.641Z,98148.92
2019-03-05T23:03:53.444Z,98154.44
2019-03-05T23:06:22.582Z,98153.50
2019-03-05T23:08:51.718Z,98155.87
2019-03-05T23:11:20.847Z,98151.97
2019-03-05T23:13:50.665Z,98154.97
2019-03-05T23:16:20.643Z,98161.30
2019-03-05T23:18:49.797Z,98160.13
2019-03-05T23:21:19.269Z,98162.55
2019-03-05T23:23:48.604Z,98161.61
2019-03-05T23:26:17.821Z,98158.16
2019-03-05T23:28:47.082Z,98157.32
2019-03-05T23:31:16.230Z,98161.43
2019-03-05T23:33:45.354Z,98163.38
2019-03-05T23:36:14.540Z,98163.98
2019-03-05T23:38:43.776Z,98167.05
2019-03-05T23:41:13.092Z,98173.45
2019-03-05T23:43:42.267Z,98173.09
2019-03-05T23:46:11.367Z,98169.83
2019-03-05T23:48:40.565Z,98170.71
2019-03-05T23:51:09.632Z,98167.98
2019-03-05T23:53:38.778Z,98162.72
2019-03-05T23:56:07.942Z,98170.78
2019-03-05T23:58:37.076Z,98166.35
